Time;durP1;ratioP1;P1;durP2;ratioP2;P2;SDS_P1;SDS_P2;PMS_P1;PMS_P2;Temp;Humidity;BMP_temperature;BMP_pressure;BME280_temperature;BME280_humidity;BME280_pressure;Samples;Min_cycle;Max_cycle;Signal;HPM_P1;HPM_P2
2022/07/29 00:02:11;;;;;;;2.53;1.02;;;15.20;99.90;;;;;;5072880;28;20047;-66
2022/07/29 00:04:37;;;;;;;2.22;0.80;;;15.20;99.90;;;;;;5074948;28;20383;-66
2022/07/29 00:07:03;;;;;;;1.90;0.80;;;15.20;99.90;;;;;;5074119;28;20036;-67
2022/07/29 00:09:29;;;;;;;1.98;1.02;;;15.20;99.90;;;;;;5075373;28;20137;-65
2022/07/29 00:11:58;;;;;;;4.28;0.90;;;15.20;99.90;;;;;;5071603;28;20086;-67
2022/07/29 00:14:24;;;;;;;4.65;0.90;;;15.20;99.90;;;;;;5073663;28;20036;-66
2022/07/29 00:16:50;;;;;;;2.83;0.90;;;15.20;99.90;;;;;;5099095;28;20047;-68
2022/07/29 00:19:15;;;;;;;3.75;1.33;;;15.20;99.90;;;;;;5086275;28;20138;-66
2022/07/29 00:21:41;;;;;;;1.98;1.10;;;15.10;99.90;;;;;;5077666;28;20055;-65
2022/07/29 00:24:07;;;;;;;3.10;0.93;;;15.10;99.90;;;;;;5070216;28;20039;-67
2022/07/29 00:26:33;;;;;;;3.50;0.93;;;15.10;99.90;;;;;;5050484;28;20057;-67
2022/07/29 00:29:00;;;;;;;2.90;1.00;;;15.10;99.90;;;;;;5048063;28;20422;-67
2022/07/29 00:31:26;;;;;;;2.67;1.17;;;15.10;99.90;;;;;;5050645;28;20068;-67
2022/07/29 00:33:51;;;;;;;3.30;1.15;;;15.10;99.90;;;;;;5048345;28;20064;-65
2022/07/29 00:36:17;;;;;;;3.60;1.00;;;15.10;99.90;;;;;;5050651;28;20044;-65
2022/07/29 00:38:45;;;;;;;3.17;0.93;;;15.10;99.90;;;;;;5048784;28;20045;-66
2022/07/29 00:41:11;;;;;;;1.45;0.82;;;15.10;99.90;;;;;;5050229;28;20080;-65
2022/07/29 00:43:37;;;;;;;4.70;1.08;;;15.10;99.90;;;;;;5049388;28;20045;-66
2022/07/29 00:46:03;;;;;;;3.03;1.13;;;15.10;99.90;;;;;;5049091;28;20127;-66
2022/07/29 00:48:28;;;;;;;1.77;1.00;;;15.10;99.90;;;;;;5051155;28;20069;-66
2022/07/29 00:50:57;;;;;;;2.72;1.27;;;15.10;99.90;;;;;;5049033;28;20116;-66
2022/07/29 00:53:24;;;;;;;2.97;1.05;;;15.00;99.90;;;;;;5049023;28;20048;-65
2022/07/29 00:55:50;;;;;;;2.58;1.00;;;15.00;99.90;;;;;;5033413;28;20076;-67
2022/07/29 00:58:16;;;;;;;1.33;0.98;;;15.00;99.90;;;;;;5049161;28;20040;-66
2022/07/29 01:00:41;;;;;;;5.22;1.00;;;15.00;99.90;;;;;;5049119;28;20044;-68
2022/07/29 01:03:08;;;;;;;2.25;1.00;;;15.00;99.90;;;;;;5049921;28;20077;-67
2022/07/29 01:05:35;;;;;;;2.72;1.10;;;15.00;99.90;;;;;;5050622;28;20060;-66
2022/07/29 01:08:02;;;;;;;2.95;0.95;;;15.00;99.90;;;;;;5051161;28;20032;-67
2022/07/29 01:10:28;;;;;;;1.73;1.10;;;15.00;99.90;;;;;;5048191;28;20044;-66
2022/07/29 01:12:57;;;;;;;1.70;0.90;;;15.00;99.90;;;;;;5049888;28;20064;-66
2022/07/29 01:15:23;;;;;;;5.18;1.10;;;15.00;99.90;;;;;;5049761;28;20124;-66
2022/07/29 01:18:10;;;;;;;1.25;0.90;;;15.00;99.90;;;;;;5049677;28;20050;-66
2022/07/29 01:20:48;;;;;;;2.42;1.02;;;15.00;99.90;;;;;;5049877;28;20044;-66
2022/07/29 01:23:34;;;;;;;3.47;1.27;;;15.00;99.90;;;;;;5031923;28;20124;-66
2022/07/29 01:26:21;;;;;;;2.85;1.10;;;15.10;99.90;;;;;;5046154;28;20055;-66
2022/07/29 01:29:00;;;;;;;1.00;0.90;;;15.00;99.90;;;;;;5084066;28;20421;-65
2022/07/29 01:31:44;;;;;;;3.35;1.20;;;15.00;99.90;;;;;;5068847;28;20115;-65
2022/07/29 01:34:15;;;;;;;3.70;1.20;;;15.00;99.90;;;;;;5068882;28;20036;-65
2022/07/29 01:36:46;;;;;;;2.17;0.90;;;15.00;99.90;;;;;;5068221;28;20066;-65
2022/07/29 01:39:23;;;;;;;4.72;1.02;;;15.10;99.90;;;;;;5068848;28;20048;-65
2022/07/29 01:42:23;;;;;;;2.05;0.90;;;15.00;99.90;;;;;;5069133;28;20170;-67
2022/07/29 01:45:02;;;;;;;2.95;1.00;;;15.10;99.90;;;;;;5068926;28;20048;-67
2022/07/29 01:47:38;;;;;;;3.13;1.10;;;15.00;99.90;;;;;;5065709;28;20056;-65
2022/07/29 01:50:08;;;;;;;3.47;1.10;;;15.00;99.90;;;;;;5068205;28;20108;-66
2022/07/29 01:52:42;;;;;;;3.90;1.30;;;15.00;99.90;;;;;;5067254;28;20115;-66
2022/07/29 01:55:13;;;;;;;2.88;1.00;;;15.00;99.90;;;;;;5068933;28;20505;-67
2022/07/29 01:57:42;;;;;;;2.65;1.20;;;15.00;99.90;;;;;;5068685;28;20105;-65
2022/07/29 02:00:08;;;;;;;3.30;0.98;;;15.00;99.90;;;;;;5067360;28;20056;-66
2022/07/29 02:02:37;;;;;;;2.05;1.20;;;15.00;99.90;;;;;;5050824;28;20415;-67
2022/07/29 02:05:05;;;;;;;3.55;1.20;;;15.00;99.90;;;;;;5069067;28;20506;-67
2022/07/29 02:07:32;;;;;;;1.52;0.90;;;15.00;99.90;;;;;;5067641;28;20075;-67
2022/07/29 02:10:00;;;;;;;3.67;1.30;;;15.00;99.90;;;;;;5081500;28;20051;-65
2022/07/29 02:12:27;;;;;;;2.97;1.08;;;15.00;99.90;;;;;;5064922;28;20390;-66
2022/07/29 02:14:54;;;;;;;5.18;1.67;;;15.00;99.90;;;;;;5069483;28;20059;-65
2022/07/29 02:17:32;;;;;;;3.47;1.10;;;15.00;99.90;;;;;;5050172;28;20083;-66
2022/07/29 02:20:00;;;;;;;2.28;0.90;;;15.00;99.90;;;;;;5066494;28;20062;-67
2022/07/29 02:22:29;;;;;;;1.48;0.98;;;15.00;99.90;;;;;;5066971;28;20040;-67
2022/07/29 02:24:56;;;;;;;2.63;1.00;;;15.00;99.90;;;;;;5067897;28;20568;-66
2022/07/29 02:27:23;;;;;;;3.00;0.88;;;15.00;99.90;;;;;;5091472;28;20056;-66
2022/07/29 02:29:51;;;;;;;5.63;1.30;;;15.00;99.90;;;;;;5067657;28;20046;-66
2022/07/29 02:32:17;;;;;;;2.63;1.00;;;14.90;99.90;;;;;;5089577;28;20036;-68
2022/07/29 02:34:44;;;;;;;2.47;1.02;;;14.90;99.90;;;;;;5072630;28;20051;-66
2022/07/29 02:37:11;;;;;;;1.77;1.10;;;14.90;99.90;;;;;;5071301;28;20044;-65
2022/07/29 02:39:40;;;;;;;1.42;1.00;;;14.90;99.90;;;;;;5090399;28;20551;-66
2022/07/29 02:42:11;;;;;;;2.58;1.10;;;15.00;99.90;;;;;;5070777;28;20047;-67
2022/07/29 02:44:37;;;;;;;4.38;1.20;;;14.90;99.90;;;;;;5090044;28;20078;-65
2022/07/29 02:47:24;;;;;;;2.38;1.13;;;14.90;99.90;;;;;;5078602;28;20126;-65
2022/07/29 02:50:11;;;;;;;2.60;0.98;;;14.90;99.90;;;;;;5085209;28;20032;-66
2022/07/29 02:52:50;;;;;;;3.45;0.98;;;14.90;99.90;;;;;;5069571;28;20032;-65
2022/07/29 02:55:30;;;;;;;2.80;1.00;;;14.90;99.90;;;;;;5072256;28;20409;-67
2022/07/29 02:58:13;;;;;;;2.38;0.95;;;14.90;99.90;;;;;;5086591;28;20058;-66
2022/07/29 03:00:40;;;;;;;5.82;1.30;;;14.90;99.90;;;;;;5069556;28;20040;-66
2022/07/29 03:03:10;;;;;;;1.65;1.02;;;14.90;99.90;;;;;;5070501;28;20032;-65
2022/07/29 03:05:37;;;;;;;4.90;1.00;;;14.80;99.90;;;;;;5070165;28;20036;-67
2022/07/29 03:08:04;;;;;;;3.85;1.00;;;14.80;99.90;;;;;;5068725;28;20032;-67
2022/07/29 03:10:31;;;;;;;3.00;0.95;;;14.80;99.90;;;;;;5071092;28;20044;-66
2022/07/29 03:12:58;;;;;;;3.33;0.95;;;14.80;99.90;;;;;;5087840;28;20044;-65
2022/07/29 03:15:25;;;;;;;2.45;1.27;;;14.80;99.90;;;;;;5072577;28;20040;-65
2022/07/29 03:17:52;;;;;;;3.90;1.08;;;14.80;99.90;;;;;;5086229;28;20039;-66
2022/07/29 03:20:18;;;;;;;3.10;1.10;;;14.80;99.90;;;;;;5080831;28;20063;-66
2022/07/29 03:22:46;;;;;;;3.28;1.00;;;14.70;99.90;;;;;;5077271;28;20469;-65
2022/07/29 03:25:17;;;;;;;1.85;1.02;;;14.70;99.90;;;;;;5076079;28;20098;-66
2022/07/29 03:27:43;;;;;;;4.07;1.00;;;14.70;99.90;;;;;;5084820;28;20084;-66
2022/07/29 03:30:10;;;;;;;2.83;1.85;;;14.60;99.90;;;;;;5074709;28;20078;-66
2022/07/29 03:32:36;;;;;;;4.25;1.08;;;14.60;99.90;;;;;;5074960;28;20086;-65
2022/07/29 03:35:03;;;;;;;2.88;0.90;;;14.60;99.90;;;;;;5073781;28;20032;-66
2022/07/29 03:37:30;;;;;;;2.05;1.05;;;14.60;99.90;;;;;;5074646;28;20091;-66
2022/07/29 03:39:57;;;;;;;2.60;1.30;;;14.60;99.90;;;;;;5092062;28;20508;-65
2022/07/29 03:42:31;;;;;;;2.03;1.02;;;14.60;99.90;;;;;;5074586;28;20114;-65
2022/07/29 03:45:00;;;;;;;3.28;1.20;;;14.50;99.90;;;;;;5090498;28;20040;-67
2022/07/29 03:47:28;;;;;;;1.58;1.00;;;14.50;99.90;;;;;;5057537;28;20079;-66
2022/07/29 03:49:59;;;;;;;3.00;0.90;;;14.50;99.90;;;;;;5091669;28;20036;-65
2022/07/29 03:52:25;;;;;;;4.30;1.23;;;14.50;99.90;;;;;;5073285;28;20032;-65
2022/07/29 03:54:51;;;;;;;2.88;0.90;;;14.40;99.90;;;;;;5077656;28;20040;-67
2022/07/29 03:57:20;;;;;;;2.10;1.30;;;14.40;99.90;;;;;;5073318;28;20043;-66
2022/07/29 03:59:46;;;;;;;2.75;1.30;;;14.40;99.90;;;;;;5073780;28;20563;-65
2022/07/29 04:02:12;;;;;;;3.25;1.17;;;14.40;99.90;;;;;;5074409;28;20039;-67
2022/07/29 04:04:38;;;;;;;1.92;0.90;;;14.40;99.90;;;;;;5073523;28;20123;-67
2022/07/29 04:07:04;;;;;;;3.35;1.05;;;14.40;99.90;;;;;;5075691;28;20119;-66
2022/07/29 04:09:30;;;;;;;3.67;1.00;;;14.40;99.90;;;;;;5077015;28;20097;-66
2022/07/29 04:11:56;;;;;;;2.42;1.10;;;14.40;99.90;;;;;;5077633;28;20043;-67
2022/07/29 04:14:22;;;;;;;1.10;1.00;;;14.40;99.90;;;;;;5072837;28;20448;-65
2022/07/29 04:16:47;;;;;;;2.05;1.02;;;14.40;99.90;;;;;;5074741;28;20035;-66
2022/07/29 04:19:13;;;;;;;3.00;1.10;;;14.40;99.90;;;;;;5073814;28;20059;-67
2022/07/29 04:21:40;;;;;;;1.63;1.10;;;14.40;99.90;;;;;;5072863;28;20127;-67
2022/07/29 04:24:07;;;;;;;1.42;1.08;;;14.40;99.90;;;;;;5099874;28;20033;-66
2022/07/29 04:26:34;;;;;;;2.67;1.10;;;14.40;99.90;;;;;;5073431;28;20074;-66
2022/07/29 04:29:00;;;;;;;1.20;0.95;;;14.40;99.90;;;;;;5092246;28;20494;-66
2022/07/29 04:31:25;;;;;;;4.10;1.30;;;14.40;99.90;;;;;;5056170;28;20188;-66
2022/07/29 04:33:51;;;;;;;6.25;1.40;;;14.40;99.90;;;;;;5073837;28;20749;-66
2022/07/29 04:36:17;;;;;;;2.10;1.00;;;14.40;99.90;;;;;;5074921;28;20458;-67
2022/07/29 04:38:43;;;;;;;2.38;1.20;;;14.40;99.90;;;;;;5074612;28;20134;-66
2022/07/29 04:41:08;;;;;;;3.08;1.20;;;14.40;99.90;;;;;;5072306;28;20073;-66
2022/07/29 04:43:37;;;;;;;3.30;1.20;;;14.40;99.90;;;;;;5072831;28;20048;-65
2022/07/29 04:46:05;;;;;;;4.68;1.25;;;14.40;99.90;;;;;;5090824;28;20048;-67
2022/07/29 04:48:31;;;;;;;2.33;1.10;;;14.40;99.90;;;;;;5074199;28;20036;-66
2022/07/29 04:50:56;;;;;;;3.83;1.38;;;14.40;99.90;;;;;;5071831;28;20587;-67
2022/07/29 04:53:22;;;;;;;2.72;1.00;;;14.40;99.90;;;;;;5092410;28;20036;-67
2022/07/29 04:55:48;;;;;;;4.53;1.15;;;14.40;99.90;;;;;;5089724;28;20130;-67
2022/07/29 04:58:14;;;;;;;3.40;1.17;;;14.50;99.90;;;;;;5084199;28;20059;-67
2022/07/29 05:00:40;;;;;;;4.93;1.52;;;14.40;99.90;;;;;;5072617;28;20505;-66
2022/07/29 05:03:05;;;;;;;3.08;1.00;;;14.50;99.90;;;;;;5073852;28;20048;-65
2022/07/29 05:05:31;;;;;;;3.25;1.10;;;14.50;99.90;;;;;;5071643;28;20074;-65
2022/07/29 05:07:57;;;;;;;2.88;1.20;;;14.50;99.90;;;;;;5065932;28;20054;-66
2022/07/29 05:10:23;;;;;;;3.15;1.17;;;14.50;99.90;;;;;;5079765;28;20057;-67
2022/07/29 05:12:48;;;;;;;3.33;1.30;;;14.50;99.90;;;;;;5072223;28;20048;-67
2022/07/29 05:15:14;;;;;;;3.63;1.23;;;14.50;99.90;;;;;;5075700;28;20115;-66
2022/07/29 05:17:40;;;;;;;1.92;1.13;;;14.50;99.90;;;;;;5082302;28;22002;-66
2022/07/29 05:20:06;;;;;;;2.40;1.00;;;14.50;99.90;;;;;;5073685;28;20052;-67
2022/07/29 05:22:31;;;;;;;2.47;1.15;;;14.50;99.90;;;;;;5071538;28;20035;-66
2022/07/29 05:24:57;;;;;;;3.20;1.38;;;14.50;99.90;;;;;;5072694;28;20460;-65
2022/07/29 05:27:23;;;;;;;3.42;1.23;;;14.60;99.90;;;;;;5069367;28;20057;-66
2022/07/29 05:29:48;;;;;;;1.63;1.05;;;14.60;99.90;;;;;;5071169;28;20043;-65
2022/07/29 05:32:14;;;;;;;2.60;1.17;;;14.60;99.90;;;;;;5069228;28;20138;-66
2022/07/29 05:34:41;;;;;;;4.57;1.27;;;14.70;99.90;;;;;;5066132;28;20040;-66
2022/07/29 05:37:06;;;;;;;1.60;1.10;;;14.70;99.90;;;;;;5069830;28;20055;-66
2022/07/29 05:39:32;;;;;;;3.40;1.20;;;14.70;99.90;;;;;;5063201;28;20037;-68
2022/07/29 05:41:57;;;;;;;1.75;1.02;;;14.80;99.90;;;;;;5069821;28;20036;-66
2022/07/29 05:44:23;;;;;;;4.00;1.15;;;15.00;99.90;;;;;;5065699;28;20040;-64
2022/07/29 05:46:49;;;;;;;2.20;1.13;;;15.00;99.90;;;;;;5045291;28;20531;-67
2022/07/29 05:49:15;;;;;;;2.75;1.30;;;15.00;99.90;;;;;;5044567;28;20044;-65
2022/07/29 05:51:40;;;;;;;3.33;1.27;;;15.10;99.90;;;;;;5069788;28;20041;-65
2022/07/29 05:54:06;;;;;;;2.83;1.67;;;15.10;99.90;;;;;;5069170;28;20431;-66
2022/07/29 05:56:32;;;;;;;2.53;1.30;;;15.10;99.90;;;;;;5061124;28;20060;-66
2022/07/29 05:58:58;;;;;;;3.83;1.23;;;15.10;99.90;;;;;;5062435;28;20063;-65
2022/07/29 06:01:23;;;;;;;4.47;1.30;;;15.20;99.90;;;;;;5059612;28;20111;-67
2022/07/29 06:03:49;;;;;;;4.53;1.10;;;15.20;99.90;;;;;;5061613;28;20443;-64
2022/07/29 06:06:15;;;;;;;4.68;1.80;;;15.20;99.90;;;;;;5058269;28;20049;-67
2022/07/29 06:08:41;;;;;;;4.63;1.30;;;15.20;99.90;;;;;;5060366;28;20048;-67
2022/07/29 06:11:08;;;;;;;4.07;1.33;;;15.20;99.90;;;;;;5063640;28;20086;-66
2022/07/29 06:13:34;;;;;;;2.63;1.23;;;15.30;99.90;;;;;;5067233;28;20120;-65
2022/07/29 06:15:59;;;;;;;4.63;1.52;;;15.30;99.90;;;;;;5068897;28;20131;-65
2022/07/29 06:18:25;;;;;;;3.25;1.20;;;15.30;99.90;;;;;;5065837;28;20414;-65
2022/07/29 06:20:51;;;;;;;4.13;1.30;;;15.20;99.90;;;;;;5069656;28;20116;-67
2022/07/29 06:23:18;;;;;;;3.10;1.40;;;15.20;99.90;;;;;;5069741;28;20037;-66
2022/07/29 06:25:43;;;;;;;3.13;1.50;;;15.20;99.90;;;;;;5060578;28;20049;-66
2022/07/29 06:28:09;;;;;;;5.25;1.55;;;15.20;99.90;;;;;;5049599;28;20051;-65
2022/07/29 06:30:35;;;;;;;2.03;1.10;;;15.20;99.90;;;;;;5049491;28;20545;-65
2022/07/29 06:33:01;;;;;;;2.88;1.25;;;15.20;99.90;;;;;;5049517;28;20036;-65
2022/07/29 06:35:27;;;;;;;4.38;1.50;;;15.10;99.90;;;;;;5032396;28;20091;-66
2022/07/29 06:37:53;;;;;;;3.05;1.30;;;15.20;99.90;;;;;;5049961;28;20045;-65
2022/07/29 06:43:03;;;;;;;4.15;1.70;;;15.10;99.90;;;;;;5055783;28;20049;-66
2022/07/29 06:45:28;;;;;;;4.32;1.27;;;15.10;99.90;;;;;;5048816;28;20458;-65
2022/07/29 06:47:54;;;;;;;3.15;1.45;;;15.10;99.90;;;;;;5055073;28;20054;-66
2022/07/29 06:50:21;;;;;;;4.75;1.50;;;15.10;99.90;;;;;;5069259;28;20175;-65
2022/07/29 06:52:47;;;;;;;4.13;1.25;;;15.10;99.90;;;;;;5069035;28;20045;-67
2022/07/29 06:55:13;;;;;;;3.42;1.27;;;15.10;99.90;;;;;;5068992;28;20049;-65
2022/07/29 06:57:39;;;;;;;4.30;1.70;;;15.10;99.90;;;;;;5052798;28;20045;-65
2022/07/29 07:00:06;;;;;;;4.07;1.42;;;15.10;99.90;;;;;;5049194;28;20372;-65
2022/07/29 07:02:32;;;;;;;3.03;1.30;;;15.20;99.90;;;;;;5049346;28;20487;-67
2022/07/29 07:04:58;;;;;;;3.40;1.50;;;15.20;99.90;;;;;;5049948;28;20167;-66
2022/07/29 07:07:24;;;;;;;7.40;1.73;;;15.20;99.90;;;;;;5049928;28;20036;-66
2022/07/29 07:09:50;;;;;;;3.40;1.50;;;15.20;99.90;;;;;;5050107;28;20043;-67
2022/07/29 07:12:15;;;;;;;3.38;1.50;;;15.20;99.90;;;;;;5048809;28;20041;-66
2022/07/29 07:14:41;;;;;;;5.68;1.67;;;15.30;99.90;;;;;;5066542;28;20045;-66
2022/07/29 07:17:07;;;;;;;3.53;1.70;;;15.30;99.90;;;;;;5065607;28;20052;-66
2022/07/29 07:19:33;;;;;;;3.38;1.50;;;15.40;99.90;;;;;;5048781;28;20487;-65
2022/07/29 07:21:58;;;;;;;3.60;1.33;;;15.40;99.90;;;;;;5031964;28;20111;-66
2022/07/29 07:24:25;;;;;;;3.08;1.30;;;15.50;99.90;;;;;;5048767;28;20116;-66
2022/07/29 07:26:51;;;;;;;3.45;1.58;;;15.50;99.90;;;;;;5063839;28;20466;-66
2022/07/29 07:29:16;;;;;;;2.90;1.55;;;15.60;99.90;;;;;;5055115;28;20041;-65
2022/07/29 07:31:42;;;;;;;5.75;2.00;;;15.70;99.90;;;;;;5050158;28;20593;-66
2022/07/29 07:34:08;;;;;;;6.45;1.65;;;15.80;99.90;;;;;;5048692;28;20044;-65
2022/07/29 07:36:33;;;;;;;4.30;1.50;;;15.90;99.90;;;;;;5062774;28;20086;-67
2022/07/29 07:38:59;;;;;;;4.78;1.88;;;16.00;99.90;;;;;;5063901;28;20179;-65
2022/07/29 07:41:24;;;;;;;6.38;1.52;;;16.00;99.90;;;;;;5048328;28;20073;-65
2022/07/29 07:43:50;;;;;;;5.00;1.60;;;16.10;99.90;;;;;;5049971;28;20048;-65
2022/07/29 07:46:16;;;;;;;3.80;1.45;;;16.10;99.90;;;;;;5048450;28;20043;-66
2022/07/29 07:48:41;;;;;;;2.83;1.30;;;16.10;99.90;;;;;;5048861;28;20049;-67
2022/07/29 07:51:07;;;;;;;2.72;1.45;;;16.10;99.90;;;;;;5048323;28;20040;-67
2022/07/29 07:53:33;;;;;;;4.10;1.50;;;16.10;99.90;;;;;;5048500;28;20094;-66
2022/07/29 07:55:59;;;;;;;3.65;1.50;;;16.20;99.90;;;;;;5048673;28;20056;-66
2022/07/29 07:58:25;;;;;;;4.35;1.58;;;16.20;99.90;;;;;;5056696;28;20075;-66
2022/07/29 08:00:51;;;;;;;2.10;1.40;;;16.20;99.90;;;;;;5054211;28;20065;-65
2022/07/29 08:03:16;;;;;;;5.47;1.67;;;16.20;99.90;;;;;;5051953;28;20399;-67
2022/07/29 08:05:42;;;;;;;5.63;1.50;;;16.30;99.90;;;;;;5051958;28;20368;-66
2022/07/29 08:08:08;;;;;;;2.15;1.30;;;16.30;99.90;;;;;;5051923;28;20073;-66
2022/07/29 08:11:06;;;;;;;4.22;1.50;;;16.30;99.90;;;;;;5071651;28;20032;-66
2022/07/29 08:13:30;;;;;;;4.75;1.60;;;16.20;99.90;;;;;;5060725;28;20040;-66
2022/07/29 08:16:00;;;;;;;5.97;1.45;;;16.20;99.90;;;;;;5071780;28;20044;-66
2022/07/29 08:18:28;;;;;;;4.47;1.40;;;16.20;99.90;;;;;;5054306;28;20537;-65
2022/07/29 08:20:54;;;;;;;4.35;1.95;;;16.30;99.90;;;;;;5051592;28;20045;-67
2022/07/29 08:23:20;;;;;;;5.22;1.50;;;16.30;99.90;;;;;;5052265;28;20083;-66
2022/07/29 08:25:45;;;;;;;4.30;1.70;;;16.30;99.90;;;;;;5061786;28;20433;-66
2022/07/29 08:28:11;;;;;;;4.15;1.52;;;16.30;99.90;;;;;;5074942;28;20094;-67
2022/07/29 08:30:37;;;;;;;4.47;1.40;;;16.30;99.90;;;;;;5075019;28;20036;-66
2022/07/29 08:33:02;;;;;;;7.75;1.70;;;16.30;99.90;;;;;;5092675;28;20036;-65
2022/07/29 08:35:28;;;;;;;4.88;1.70;;;16.30;99.90;;;;;;5074333;28;20055;-66
2022/07/29 08:37:54;;;;;;;3.97;1.58;;;16.40;99.90;;;;;;5074840;28;20122;-66
2022/07/29 08:40:20;;;;;;;4.05;1.48;;;16.50;99.90;;;;;;5074449;28;20063;-66
2022/07/29 08:42:46;;;;;;;6.15;1.65;;;16.60;99.90;;;;;;5074544;28;20040;-66
2022/07/29 08:45:12;;;;;;;4.05;1.77;;;16.70;99.90;;;;;;5090698;28;20559;-66
2022/07/29 08:47:41;;;;;;;5.70;1.90;;;16.80;99.90;;;;;;5091961;28;20096;-67
2022/07/29 08:50:08;;;;;;;2.95;1.70;;;16.90;99.90;;;;;;5074364;28;20103;-67
2022/07/29 08:52:37;;;;;;;5.85;1.85;;;17.00;99.90;;;;;;5057595;28;20127;-67
2022/07/29 08:55:05;;;;;;;4.05;1.60;;;17.10;99.90;;;;;;5073884;28;20028;-65
2022/07/29 08:57:32;;;;;;;4.57;1.60;;;17.20;99.90;;;;;;5074446;28;20487;-66
2022/07/29 09:00:00;;;;;;;4.13;1.73;;;17.30;99.90;;;;;;5074359;28;20107;-66
2022/07/29 09:02:29;;;;;;;3.58;2.10;;;17.40;99.90;;;;;;5066467;28;20047;-65
2022/07/29 09:04:58;;;;;;;6.70;1.73;;;17.40;99.90;;;;;;5086016;28;20032;-66
2022/07/29 09:07:24;;;;;;;7.47;2.35;;;17.50;99.90;;;;;;5073700;28;20111;-67
2022/07/29 09:09:50;;;;;;;6.43;2.40;;;17.50;99.90;;;;;;5089340;28;20110;-67
2022/07/29 09:12:16;;;;;;;6.97;2.25;;;17.60;99.90;;;;;;5093702;28;20039;-66
2022/07/29 09:14:42;;;;;;;5.93;2.03;;;17.60;99.90;;;;;;5083025;28;20130;-65
2022/07/29 09:17:08;;;;;;;5.68;1.80;;;17.70;99.90;;;;;;5073836;28;20040;-67
2022/07/29 09:19:35;;;;;;;5.25;1.90;;;17.70;99.90;;;;;;5077616;28;20043;-67
2022/07/29 09:22:05;;;;;;;4.28;2.00;;;17.80;99.90;;;;;;5072517;28;20089;-68
2022/07/29 09:24:41;;;;;;;6.80;1.70;;;17.80;99.90;;;;;;5073608;28;20052;-67
2022/07/29 09:27:10;;;;;;;4.38;1.90;;;17.90;99.90;;;;;;5076755;28;20169;-66
2022/07/29 09:29:37;;;;;;;4.47;2.30;;;17.90;99.90;;;;;;5073415;28;20036;-65
2022/07/29 09:32:07;;;;;;;7.15;1.80;;;18.00;99.90;;;;;;5073964;28;20039;-66
2022/07/29 09:34:33;;;;;;;5.82;1.50;;;18.10;99.90;;;;;;5073541;28;20044;-65
2022/07/29 09:36:59;;;;;;;4.22;1.80;;;18.20;99.90;;;;;;5073227;28;20390;-65
2022/07/29 09:39:30;;;;;;;6.72;2.00;;;18.30;99.90;;;;;;5100305;28;20067;-67
2022/07/29 09:41:58;;;;;;;4.07;1.80;;;18.40;99.90;;;;;;5073389;28;20040;-68
2022/07/29 09:44:25;;;;;;;3.00;1.77;;;18.50;99.90;;;;;;5073451;28;20409;-67
2022/07/29 09:47:05;;;;;;;5.40;1.90;;;18.50;99.90;;;;;;5082116;28;20047;-66
2022/07/29 09:49:33;;;;;;;4.25;1.40;;;18.60;99.90;;;;;;5073291;28;20032;-67
2022/07/29 09:52:07;;;;;;;4.60;1.50;;;18.70;99.90;;;;;;5095246;28;20488;-66
2022/07/29 09:54:36;;;;;;;4.28;1.55;;;18.70;99.90;;;;;;5092777;28;20052;-66
2022/07/29 09:57:04;;;;;;;4.28;1.77;;;18.80;99.90;;;;;;5072051;28;20043;-66
2022/07/29 09:59:30;;;;;;;5.65;1.88;;;18.90;99.90;;;;;;5074176;28;20103;-66
2022/07/29 10:01:56;;;;;;;4.60;1.90;;;19.10;99.90;;;;;;5073208;28;20416;-66
2022/07/29 10:04:22;;;;;;;7.60;2.25;;;19.20;99.90;;;;;;5073175;28;20036;-66
2022/07/29 10:06:58;;;;;;;5.38;1.83;;;19.30;99.90;;;;;;5077223;28;20100;-65
2022/07/29 10:09:24;;;;;;;5.20;1.90;;;19.40;99.90;;;;;;5079064;28;20579;-66
2022/07/29 10:12:08;;;;;;;5.65;1.77;;;19.50;99.90;;;;;;5082807;28;20056;-68
2022/07/29 10:14:35;;;;;;;4.63;2.00;;;19.70;99.90;;;;;;5098958;28;20043;-67
2022/07/29 10:17:02;;;;;;;5.05;1.88;;;19.80;99.90;;;;;;5111262;28;20122;-66
2022/07/29 10:19:30;;;;;;;5.68;1.83;;;20.00;99.90;;;;;;5084711;28;20043;-67
2022/07/29 10:21:58;;;;;;;5.22;2.20;;;20.20;99.90;;;;;;5090643;28;20474;-65
2022/07/29 10:24:29;;;;;;;3.50;2.00;;;20.40;99.90;;;;;;5098777;28;20040;-66
2022/07/29 10:26:55;;;;;;;5.22;1.83;;;20.50;99.90;;;;;;5091150;28;20138;-67
2022/07/29 10:29:22;;;;;;;5.05;1.83;;;20.50;99.90;;;;;;5091452;28;20031;-66
2022/07/29 10:32:25;;;;;;;3.25;1.88;;;20.40;99.90;;;;;;5072414;28;20032;-67
2022/07/29 10:35:09;;;;;;;3.42;1.60;;;20.30;99.90;;;;;;5070295;28;20043;-67
2022/07/29 10:37:53;;;;;;;4.07;2.08;;;20.30;99.90;;;;;;5088612;28;20489;-67
2022/07/29 10:43:35;;;;;;;3.85;1.88;;;20.50;99.90;;;;;;5072410;28;20048;-66
2022/07/29 10:46:02;;;;;;;4.43;1.70;;;21.10;99.90;;;;;;5081082;28;20494;-66
2022/07/29 10:48:28;;;;;;;7.68;2.85;;;21.30;99.90;;;;;;5072482;28;20127;-66
2022/07/29 10:51:03;;;;;;;7.15;1.88;;;21.20;99.90;;;;;;5072077;28;20055;-65
2022/07/29 10:53:49;;;;;;;7.10;1.50;;;21.20;99.90;;;;;;5086737;28;20197;-67
2022/07/29 10:56:31;;;;;;;4.90;2.05;;;21.00;99.90;;;;;;5075218;28;20051;-68
2022/07/29 10:59:22;;;;;;;4.50;1.90;;;21.00;99.90;;;;;;5092436;28;20044;-66
2022/07/29 11:01:50;;;;;;;4.95;1.75;;;20.90;99.90;;;;;;5086956;28;20048;-66
2022/07/29 11:04:36;;;;;;;4.65;1.77;;;20.90;99.90;;;;;;5072365;28;20048;-66
2022/07/29 11:07:05;;;;;;;3.28;1.70;;;21.00;99.90;;;;;;5072026;28;20483;-66
2022/07/29 11:09:31;;;;;;;5.47;1.83;;;21.00;99.90;;;;;;5077918;28;20039;-67
2022/07/29 11:11:59;;;;;;;6.07;1.70;;;21.00;99.90;;;;;;5091235;28;20494;-68
2022/07/29 11:14:53;;;;;;;5.38;1.63;;;21.00;99.90;;;;;;5084985;28;20078;-67
2022/07/29 11:17:19;;;;;;;4.90;1.67;;;21.10;99.90;;;;;;5072340;28;20040;-66
2022/07/29 11:19:45;;;;;;;3.17;1.60;;;21.10;99.90;;;;;;5072099;28;20044;-67
2022/07/29 11:22:11;;;;;;;5.32;1.48;;;21.10;99.90;;;;;;5071633;28;20482;-67
2022/07/29 11:24:37;;;;;;;4.57;1.63;;;21.00;99.90;;;;;;5071707;28;20398;-68
2022/07/29 11:27:14;;;;;;;4.15;2.05;;;21.10;99.90;;;;;;5071735;28;20056;-66
2022/07/29 11:29:48;;;;;;;3.38;1.40;;;21.30;99.90;;;;;;5072487;28;20410;-66
2022/07/29 11:32:18;;;;;;;4.57;1.65;;;21.40;99.90;;;;;;5071524;28;20182;-66
2022/07/29 11:34:44;;;;;;;4.75;1.75;;;21.50;99.90;;;;;;5072522;28;20052;-66
2022/07/29 11:37:10;;;;;;;4.95;1.95;;;21.70;99.90;;;;;;5075624;28;20055;-65
2022/07/29 11:39:58;;;;;;;4.35;1.88;;;21.80;99.90;;;;;;5079966;28;20051;-67
2022/07/29 11:42:23;;;;;;;6.25;2.15;;;21.90;99.90;;;;;;4989670;28;20107;-67
2022/07/29 11:45:13;;;;;;;6.10;2.05;;;21.90;99.90;;;;;;4981310;28;20563;-67
2022/07/29 11:47:58;;;;;;;7.20;2.28;;;21.90;99.90;;;;;;4976008;28;20167;-68
2022/07/29 11:50:30;;;;;;;4.18;1.70;;;21.90;99.90;;;;;;4991918;28;20046;-66
2022/07/29 11:52:56;;;;;;;4.57;2.25;;;22.00;99.90;;;;;;4992058;28;20090;-66
2022/07/29 11:55:23;;;;;;;4.93;1.90;;;22.00;99.90;;;;;;4981254;28;20057;-67
2022/07/29 11:57:59;;;;;;;5.20;1.92;;;22.20;99.90;;;;;;4995267;28;20128;-66
2022/07/29 12:00:39;;;;;;;4.57;1.48;;;22.40;99.90;;;;;;4974881;28;20057;-67
2022/07/29 12:03:07;;;;;;;8.15;1.83;;;22.70;99.90;;;;;;5007129;28;20084;-67
2022/07/29 12:05:39;;;;;;;5.15;2.17;;;22.90;99.90;;;;;;5007908;28;20050;-67
2022/07/29 12:08:19;;;;;;;5.63;2.50;;;23.20;99.90;;;;;;4993095;28;20100;-66
2022/07/29 12:10:47;;;;;;;5.72;2.45;;;23.50;99.90;;;;;;4982740;28;20046;-66
2022/07/29 12:13:14;;;;;;;5.57;2.67;;;23.70;99.90;;;;;;4975242;28;20049;-65
2022/07/29 12:15:41;;;;;;;5.05;2.05;;;23.90;99.90;;;;;;4973238;28;20045;-67
2022/07/29 12:18:22;;;;;;;5.80;1.98;;;24.00;99.50;;;;;;4992917;28;20579;-68
2022/07/29 12:20:48;;;;;;;3.95;2.03;;;24.10;99.20;;;;;;5075469;28;20478;-67
2022/07/29 12:23:16;;;;;;;7.60;2.00;;;24.10;98.10;;;;;;5060726;28;20206;-67
2022/07/29 12:25:43;;;;;;;4.82;1.88;;;23.90;97.90;;;;;;5088802;28;20083;-68
2022/07/29 12:28:12;;;;;;;10.13;2.17;;;23.80;97.60;;;;;;5074734;28;20047;-66
2022/07/29 12:30:48;;;;;;;6.15;2.55;;;23.70;97.80;;;;;;5093024;28;20376;-68
2022/07/29 12:33:17;;;;;;;3.22;1.92;;;23.60;98.10;;;;;;5085127;28;20028;-67
2022/07/29 12:35:45;;;;;;;5.32;2.33;;;23.60;97.70;;;;;;5095296;28;20109;-67
2022/07/29 12:38:12;;;;;;;7.80;2.13;;;23.50;97.60;;;;;;5087451;28;20127;-66
2022/07/29 12:40:38;;;;;;;7.30;2.90;;;23.40;97.80;;;;;;5092713;28;20036;-68
2022/07/29 12:43:25;;;;;;;5.00;2.20;;;23.30;97.60;;;;;;5075055;28;20402;-66
2022/07/29 12:45:55;;;;;;;10.35;2.42;;;23.00;97.60;;;;;;5092496;28;20115;-66
2022/07/29 12:48:34;;;;;;;5.18;2.30;;;22.90;98.10;;;;;;5074059;28;20079;-66
2022/07/29 12:51:01;;;;;;;5.70;2.22;;;22.90;98.60;;;;;;5075031;28;20119;-66
2022/07/29 12:53:28;;;;;;;4.88;2.10;;;22.90;98.80;;;;;;5074228;28;20062;-67
2022/07/29 12:55:55;;;;;;;6.32;2.42;;;23.00;98.70;;;;;;5092439;28;20040;-67
2022/07/29 12:58:35;;;;;;;8.70;2.85;;;23.00;98.90;;;;;;5074240;28;20058;-66
2022/07/29 13:01:17;;;;;;;5.20;2.35;;;23.00;98.50;;;;;;5074214;28;20089;-67
2022/07/29 13:03:44;;;;;;;7.40;2.40;;;23.00;98.60;;;;;;5057592;28;20105;-68